Time;durP1;ratioP1;P1;durP2;ratioP2;P2;SDS_P1;SDS_P2;PMS_P1;PMS_P2;Temp;Humidity;BMP_temperature;BMP_pressure;BME280_temperature;BME280_humidity;BME280_pressure;Samples;Min_cycle;Max_cycle;Signal;HPM_P1;HPM_P2
2023/12/19 00:00:29;;;;;;;11.20;9.20;;;;;;;;;;5046735;28;20199;-65
2023/12/19 00:02:56;;;;;;;11.40;9.37;;;;;;;;;;5045574;28;20214;-64
2023/12/19 00:05:24;;;;;;;11.67;9.80;;;;;;;;;;5045740;28;20212;-64
2023/12/19 00:07:51;;;;;;;13.13;10.43;;;;;;;;;;5043085;28;20196;-63
2023/12/19 00:10:19;;;;;;;14.50;10.50;;;;;;;;;;5042595;28;20207;-64
2023/12/19 00:12:46;;;;;;;12.23;9.87;;;;;;;;;;5041547;28;20203;-64
2023/12/19 00:15:13;;;;;;;12.70;9.70;;;;;;;;;;5041289;28;20210;-64
2023/12/19 00:17:42;;;;;;;12.63;10.07;;;;;;;;;;5042565;28;20203;-63
2023/12/19 00:20:11;;;;;;;14.43;10.47;;;;;;;;;;5041934;28;20304;-64
2023/12/19 00:22:38;;;;;;;12.90;9.90;;;;;;;;;;5040977;28;20218;-63
2023/12/19 00:25:05;;;;;;;15.10;11.03;;;;;;;;;;5045499;28;20214;-63
2023/12/19 00:27:34;;;;;;;13.60;10.77;;;;;;;;;;5041992;28;20232;-64
2023/12/19 00:30:01;;;;;;;13.43;10.53;;;;;;;;;;5046797;28;20238;-63
2023/12/19 00:32:28;;;;;;;15.10;11.23;;;;;;;;;;5045271;28;20208;-64
2023/12/19 00:34:55;;;;;;;14.33;10.90;;;;;;;;;;5044955;28;20213;-70
2023/12/19 00:37:22;;;;;;;14.17;10.90;;;;;;;;;;5044655;28;20380;-71
2023/12/19 00:39:49;;;;;;;14.10;10.40;;;;;;;;;;5046542;28;20211;-71
2023/12/19 00:42:16;;;;;;;13.60;10.60;;;;;;;;;;5037342;28;20211;-70
2023/12/19 00:44:45;;;;;;;15.17;11.47;;;;;;;;;;5046087;28;20198;-70
2023/12/19 00:47:12;;;;;;;13.10;10.10;;;;;;;;;;5046511;28;20231;-72
2023/12/19 00:49:39;;;;;;;15.80;11.30;;;;;;;;;;5042962;28;20199;-70
2023/12/19 00:52:06;;;;;;;14.23;10.30;;;;;;;;;;5042739;28;20253;-71
2023/12/19 00:54:33;;;;;;;14.63;10.90;;;;;;;;;;5045599;28;20202;-70
2023/12/19 00:57:01;;;;;;;14.50;10.77;;;;;;;;;;5040508;28;20202;-71
2023/12/19 00:59:28;;;;;;;13.43;9.67;;;;;;;;;;5040884;28;20212;-70
2023/12/19 01:01:57;;;;;;;11.97;9.90;;;;;;;;;;5043688;28;20217;-71
2023/12/19 01:04:24;;;;;;;11.73;9.37;;;;;;;;;;5042652;28;20325;-71
2023/12/19 01:06:52;;;;;;;13.60;10.70;;;;;;;;;;5041913;28;20227;-71
2023/12/19 01:09:19;;;;;;;12.70;9.27;;;;;;;;;;5043424;28;20214;-70
2023/12/19 01:11:46;;;;;;;14.33;10.47;;;;;;;;;;5045581;28;20214;-70
2023/12/19 01:14:13;;;;;;;13.07;9.83;;;;;;;;;;5042835;28;20199;-70
2023/12/19 01:16:40;;;;;;;14.23;10.20;;;;;;;;;;5043720;28;20261;-71
2023/12/19 01:19:10;;;;;;;13.93;10.30;;;;;;;;;;5042439;28;20213;-70
2023/12/19 01:21:37;;;;;;;13.10;10.33;;;;;;;;;;5040921;28;20200;-69
2023/12/19 01:24:05;;;;;;;15.87;10.90;;;;;;;;;;5045089;28;20212;-71
2023/12/19 01:26:32;;;;;;;15.67;11.00;;;;;;;;;;5040448;28;20223;-71
2023/12/19 01:29:00;;;;;;;14.43;10.37;;;;;;;;;;5043919;28;20238;-71
2023/12/19 01:31:27;;;;;;;15.03;10.57;;;;;;;;;;5044468;28;20426;-71
2023/12/19 01:33:54;;;;;;;17.47;9.90;;;;;;;;;;5041598;28;20215;-70
2023/12/19 01:36:23;;;;;;;13.97;10.13;;;;;;;;;;5041173;28;20199;-70
2023/12/19 01:38:50;;;;;;;15.20;11.73;;;;;;;;;;5043621;28;20207;-71
2023/12/19 01:41:17;;;;;;;15.40;11.17;;;;;;;;;;5041323;28;20217;-69
2023/12/19 01:43:45;;;;;;;17.23;11.10;;;;;;;;;;5044955;28;20198;-70
2023/12/19 01:46:14;;;;;;;19.67;11.93;;;;;;;;;;5039093;28;20216;-70
2023/12/19 01:48:41;;;;;;;16.27;11.60;;;;;;;;;;5044487;28;20210;-70
2023/12/19 01:51:11;;;;;;;17.23;11.03;;;;;;;;;;5040523;28;20217;-70
2023/12/19 01:53:39;;;;;;;17.93;12.50;;;;;;;;;;5042998;28;20223;-71
2023/12/19 01:56:07;;;;;;;21.70;12.47;;;;;;;;;;5039568;28;20235;-71
2023/12/19 01:58:36;;;;;;;18.33;11.43;;;;;;;;;;5041890;28;20210;-70
2023/12/19 02:01:03;;;;;;;19.03;12.33;;;;;;;;;;5043522;28;20203;-71
2023/12/19 02:03:30;;;;;;;25.47;13.00;;;;;;;;;;5041042;28;20403;-71
2023/12/19 02:05:59;;;;;;;24.40;12.73;;;;;;;;;;5043965;28;20198;-71
2023/12/19 02:08:27;;;;;;;20.77;12.63;;;;;;;;;;5040319;28;20207;-71
2023/12/19 02:10:56;;;;;;;30.97;12.13;;;;;;;;;;5044123;28;20264;-71
2023/12/19 02:13:23;;;;;;;23.17;12.60;;;;;;;;;;5038497;28;20215;-71
2023/12/19 02:15:50;;;;;;;17.40;10.70;;;;;;;;;;5040882;28;20199;-70
2023/12/19 02:18:18;;;;;;;19.27;11.63;;;;;;;;;;5040115;28;20196;-69
2023/12/19 02:20:45;;;;;;;20.20;11.83;;;;;;;;;;5037644;28;20200;-71
2023/12/19 02:23:13;;;;;;;24.03;11.53;;;;;;;;;;5043471;28;20207;-70
2023/12/19 02:25:41;;;;;;;19.10;11.17;;;;;;;;;;5042725;28;20210;-71
2023/12/19 02:28:08;;;;;;;24.03;10.77;;;;;;;;;;5044810;28;20322;-70
2023/12/19 02:30:36;;;;;;;22.87;11.53;;;;;;;;;;5045454;28;20207;-71
2023/12/19 02:33:03;;;;;;;23.20;9.60;;;;;;;;;;5040544;28;20204;-70
2023/12/19 02:35:30;;;;;;;17.90;9.90;;;;;;;;;;5039681;28;20215;-72
2023/12/19 02:37:59;;;;;;;19.07;9.73;;;;;;;;;;5063413;22;20207;-90
2023/12/19 02:40:28;;;;;;;19.93;10.27;;;;;;;;;;5072255;28;20222;-88
2023/12/19 02:42:57;;;;;;;21.67;10.03;;;;;;;;;;5072523;28;20261;-89
2023/12/19 02:48:35;;;;;;;17.30;9.00;;;;;;;;;;5086320;22;20419;-65
2023/12/19 02:51:02;;;;;;;20.50;9.93;;;;;;;;;;5083552;28;20201;-64
2023/12/19 02:53:29;;;;;;;23.57;10.27;;;;;;;;;;5086501;28;20223;-71
2023/12/19 02:55:58;;;;;;;17.50;9.13;;;;;;;;;;5085283;28;20219;-70
2023/12/19 02:58:25;;;;;;;18.00;8.80;;;;;;;;;;5080746;28;20228;-71
2023/12/19 03:00:52;;;;;;;19.40;8.90;;;;;;;;;;5088627;28;20294;-70
2023/12/19 03:03:19;;;;;;;17.13;9.30;;;;;;;;;;5080988;28;20199;-72
2023/12/19 03:05:46;;;;;;;18.93;9.10;;;;;;;;;;5081817;28;20198;-70
2023/12/19 03:08:13;;;;;;;17.93;10.03;;;;;;;;;;5083130;28;20319;-71
2023/12/19 03:10:40;;;;;;;18.03;8.53;;;;;;;;;;5081773;28;20201;-71
2023/12/19 03:13:09;;;;;;;16.67;8.73;;;;;;;;;;5084537;28;20202;-72
2023/12/19 03:15:36;;;;;;;15.90;8.63;;;;;;;;;;5085244;28;20204;-72
2023/12/19 03:18:03;;;;;;;12.90;8.27;;;;;;;;;;5081190;28;20212;-71
2023/12/19 03:20:30;;;;;;;14.17;8.60;;;;;;;;;;5087123;28;20202;-72
2023/12/19 03:22:57;;;;;;;16.23;8.60;;;;;;;;;;5083903;28;20211;-70
2023/12/19 03:25:24;;;;;;;13.83;8.50;;;;;;;;;;5085730;28;20198;-72
2023/12/19 03:27:52;;;;;;;17.67;9.10;;;;;;;;;;5080879;28;20238;-70
2023/12/19 03:30:28;;;;;;;16.67;8.60;;;;;;;;;;5085779;22;20345;-72
2023/12/19 03:32:55;;;;;;;18.07;8.20;;;;;;;;;;5059710;28;20233;-71
2023/12/19 03:35:23;;;;;;;16.87;9.47;;;;;;;;;;5059568;28;20199;-71
2023/12/19 03:37:50;;;;;;;15.93;8.90;;;;;;;;;;5055577;28;20255;-71
2023/12/19 03:40:17;;;;;;;15.83;8.90;;;;;;;;;;5061368;28;20267;-72
2023/12/19 03:42:45;;;;;;;15.30;8.93;;;;;;;;;;5059986;28;20207;-70
2023/12/19 03:45:12;;;;;;;22.17;9.57;;;;;;;;;;5066185;28;20207;-71
2023/12/19 03:47:41;;;;;;;16.27;9.13;;;;;;;;;;5063886;28;20222;-71
2023/12/19 03:50:08;;;;;;;16.03;9.53;;;;;;;;;;5061768;28;20206;-71
2023/12/19 03:52:36;;;;;;;16.47;8.60;;;;;;;;;;5065198;28;20217;-71
2023/12/19 03:55:03;;;;;;;17.13;9.23;;;;;;;;;;5060253;28;20202;-71
2023/12/19 03:57:30;;;;;;;16.83;9.43;;;;;;;;;;5066395;28;20203;-71
2023/12/19 03:59:57;;;;;;;12.90;8.70;;;;;;;;;;5063122;28;20488;-71
2023/12/19 04:02:24;;;;;;;18.53;9.33;;;;;;;;;;5064021;28;20210;-71
2023/12/19 04:04:53;;;;;;;16.10;8.60;;;;;;;;;;5062105;28;20293;-71
2023/12/19 04:07:20;;;;;;;13.80;8.60;;;;;;;;;;5067378;28;20230;-72
2023/12/19 04:09:47;;;;;;;15.83;9.23;;;;;;;;;;5066396;28;20208;-72
2023/12/19 04:12:14;;;;;;;15.77;9.40;;;;;;;;;;5058881;28;20213;-70
2023/12/19 04:14:41;;;;;;;17.03;9.30;;;;;;;;;;5059436;28;20655;-71
2023/12/19 04:17:10;;;;;;;17.03;9.27;;;;;;;;;;5058982;28;20214;-73
2023/12/19 04:19:37;;;;;;;19.37;9.70;;;;;;;;;;5059253;28;20206;-70
2023/12/19 04:22:05;;;;;;;17.93;9.13;;;;;;;;;;5063769;28;20207;-65
2023/12/19 04:24:32;;;;;;;17.33;9.40;;;;;;;;;;5063094;28;20266;-65
2023/12/19 04:26:59;;;;;;;18.13;9.10;;;;;;;;;;5065780;28;20228;-65
2023/12/19 04:29:26;;;;;;;19.47;8.97;;;;;;;;;;5063379;28;20212;-65
2023/12/19 04:31:54;;;;;;;32.47;10.20;;;;;;;;;;5063806;28;20238;-65
2023/12/19 04:34:21;;;;;;;16.33;9.27;;;;;;;;;;5062719;28;20210;-64
2023/12/19 04:36:48;;;;;;;13.27;8.43;;;;;;;;;;5064412;28;20205;-65
2023/12/19 04:39:16;;;;;;;16.40;8.67;;;;;;;;;;5065123;28;20216;-65
2023/12/19 04:41:43;;;;;;;17.40;9.07;;;;;;;;;;5059541;28;20209;-64
2023/12/19 04:44:11;;;;;;;15.60;8.50;;;;;;;;;;5062252;28;20217;-65
2023/12/19 04:46:38;;;;;;;17.10;8.40;;;;;;;;;;5061241;28;20190;-65
2023/12/19 04:49:05;;;;;;;16.27;8.00;;;;;;;;;;5061882;28;20228;-65
2023/12/19 04:51:32;;;;;;;20.73;9.03;;;;;;;;;;5064194;28;20196;-66
2023/12/19 04:53:59;;;;;;;20.87;9.57;;;;;;;;;;5060887;28;20214;-64
2023/12/19 04:56:28;;;;;;;18.70;9.57;;;;;;;;;;5063712;28;20202;-64
2023/12/19 04:58:55;;;;;;;83.77;10.40;;;;;;;;;;5058452;28;20204;-65
2023/12/19 05:01:22;;;;;;;22.50;9.63;;;;;;;;;;5061085;28;20207;-65
2023/12/19 05:03:49;;;;;;;17.50;8.70;;;;;;;;;;5060963;28;20213;-65
2023/12/19 05:06:17;;;;;;;17.83;8.70;;;;;;;;;;5060579;28;20203;-65
2023/12/19 05:08:45;;;;;;;23.53;9.93;;;;;;;;;;5063701;28;20229;-65
2023/12/19 05:11:12;;;;;;;19.13;9.53;;;;;;;;;;5061955;28;20206;-70
2023/12/19 05:13:40;;;;;;;18.80;9.03;;;;;;;;;;5064496;28;20215;-70
2023/12/19 05:16:11;;;;;;;16.33;8.30;;;;;;;;;;5062616;28;20196;-71
2023/12/19 05:18:40;;;;;;;15.03;8.00;;;;;;;;;;5066101;28;20205;-71
2023/12/19 05:21:07;;;;;;;20.43;9.50;;;;;;;;;;5062797;28;20208;-72
2023/12/19 05:23:35;;;;;;;18.70;9.00;;;;;;;;;;5062332;28;20204;-70
2023/12/19 05:26:03;;;;;;;17.03;8.90;;;;;;;;;;5083861;22;20258;-64
2023/12/19 05:28:30;;;;;;;17.23;8.80;;;;;;;;;;5065684;28;20215;-64
2023/12/19 05:30:58;;;;;;;19.47;9.30;;;;;;;;;;5063162;28;20457;-65
2023/12/19 05:33:25;;;;;;;22.47;9.03;;;;;;;;;;5063157;22;20237;-65
2023/12/19 05:36:02;;;;;;;22.17;9.27;;;;;;;;;;5047123;28;20214;-65
2023/12/19 05:38:31;;;;;;;16.80;9.00;;;;;;;;;;5040042;28;20280;-65
2023/12/19 05:40:58;;;;;;;17.03;8.93;;;;;;;;;;5040988;28;20208;-65
2023/12/19 05:43:25;;;;;;;17.30;8.83;;;;;;;;;;5044384;28;20206;-65
2023/12/19 05:45:52;;;;;;;18.23;8.77;;;;;;;;;;5064314;22;20230;-64
2023/12/19 05:48:22;;;;;;;18.57;9.07;;;;;;;;;;5062060;28;20231;-65
2023/12/19 05:50:49;;;;;;;22.60;9.37;;;;;;;;;;5064792;28;20225;-64
2023/12/19 05:53:16;;;;;;;22.17;9.73;;;;;;;;;;5063352;28;20199;-64
2023/12/19 05:55:44;;;;;;;15.50;8.77;;;;;;;;;;5066571;28;20211;-64
2023/12/19 05:58:11;;;;;;;14.63;8.53;;;;;;;;;;5064989;28;20202;-64
2023/12/19 06:00:38;;;;;;;20.13;8.43;;;;;;;;;;5062461;28;20202;-65
2023/12/19 06:03:06;;;;;;;16.13;7.93;;;;;;;;;;5064172;28;20443;-64
2023/12/19 06:05:38;;;;;;;17.37;8.47;;;;;;;;;;5066488;28;20214;-64
2023/12/19 06:08:05;;;;;;;23.07;8.50;;;;;;;;;;5063865;28;20239;-65
2023/12/19 06:10:32;;;;;;;17.17;7.97;;;;;;;;;;5064080;28;20207;-64
2023/12/19 06:13:00;;;;;;;19.13;8.03;;;;;;;;;;5065590;28;20202;-65
2023/12/19 06:15:28;;;;;;;17.07;8.63;;;;;;;;;;5096755;22;20245;-87
2023/12/19 06:17:55;;;;;;;16.70;8.10;;;;;;;;;;5043772;28;20230;-88
2023/12/19 06:20:23;;;;;;;26.93;13.57;;;;;;;;;;5045119;28;20260;-88
2023/12/19 06:22:51;;;;;;;16.33;7.07;;;;;;;;;;5044137;28;20362;-88
2023/12/19 06:25:19;;;;;;;14.67;7.23;;;;;;;;;;5050827;28;20207;-88
2023/12/19 06:27:46;;;;;;;14.17;7.47;;;;;;;;;;5058633;28;20246;-87
2023/12/19 06:30:14;;;;;;;15.03;6.63;;;;;;;;;;5047324;28;20246;-88
2023/12/19 06:32:47;;;;;;;14.97;6.97;;;;;;;;;;5037935;28;20208;-88
2023/12/19 06:35:15;;;;;;;15.67;7.87;;;;;;;;;;5047645;28;20207;-88
2023/12/19 06:37:47;;;;;;;15.57;7.00;;;;;;;;;;5049813;28;20278;-88
2023/12/19 06:40:19;;;;;;;15.10;7.20;;;;;;;;;;5047059;28;20230;-88
2023/12/19 06:42:48;;;;;;;12.27;6.60;;;;;;;;;;5052946;28;20218;-87
2023/12/19 06:45:16;;;;;;;15.03;6.17;;;;;;;;;;5053485;28;20268;-87
2023/12/19 06:47:45;;;;;;;11.17;6.53;;;;;;;;;;5054344;28;20418;-88
2023/12/19 06:50:12;;;;;;;14.00;6.77;;;;;;;;;;5054128;28;20209;-88
2023/12/19 06:52:42;;;;;;;11.50;7.07;;;;;;;;;;5054038;28;20363;-88
2023/12/19 06:55:16;;;;;;;12.40;7.03;;;;;;;;;;5052687;28;20210;-88
2023/12/19 06:57:55;;;;;;;13.07;7.43;;;;;;;;;;5054590;28;20216;-88
2023/12/19 07:00:23;;;;;;;14.30;7.70;;;;;;;;;;5051684;28;20297;-88
2023/12/19 07:02:51;;;;;;;12.00;7.27;;;;;;;;;;5048949;28;20210;-88
2023/12/19 07:05:20;;;;;;;16.23;7.00;;;;;;;;;;5053200;28;20237;-88
2023/12/19 07:07:51;;;;;;;13.17;7.00;;;;;;;;;;5051402;28;20210;-88
2023/12/19 07:10:21;;;;;;;14.27;7.47;;;;;;;;;;5050385;28;20234;-87
2023/12/19 07:12:50;;;;;;;18.17;7.07;;;;;;;;;;5052332;28;20230;-88
2023/12/19 07:15:19;;;;;;;15.73;7.33;;;;;;;;;;5052536;28;20239;-88
2023/12/19 07:17:47;;;;;;;24.83;7.77;;;;;;;;;;5050408;28;20231;-88
2023/12/19 07:20:16;;;;;;;18.67;7.87;;;;;;;;;;5052971;28;20207;-89
2023/12/19 07:22:43;;;;;;;23.00;8.43;;;;;;;;;;5053832;28;20221;-88
2023/12/19 07:25:11;;;;;;;22.00;7.63;;;;;;;;;;5051231;28;20214;-88
2023/12/19 07:27:39;;;;;;;17.47;8.20;;;;;;;;;;5053606;28;20275;-88
2023/12/19 07:30:12;;;;;;;20.60;9.00;;;;;;;;;;5052902;28;20208;-88
2023/12/19 07:32:39;;;;;;;34.60;8.73;;;;;;;;;;5047629;28;20287;-88
2023/12/19 07:35:09;;;;;;;24.57;9.47;;;;;;;;;;5053961;28;20212;-92
2023/12/19 07:37:37;;;;;;;23.70;8.90;;;;;;;;;;5050690;28;20254;-92
2023/12/19 07:40:10;;;;;;;35.37;10.07;;;;;;;;;;5059921;28;20293;-93
2023/12/19 07:45:37;;;;;;;44.77;10.23;;;;;;;;;;5047817;28;20286;-92
2023/12/19 07:48:05;;;;;;;56.57;9.97;;;;;;;;;;5056747;28;20268;-92
2023/12/19 07:50:32;;;;;;;42.60;9.13;;;;;;;;;;5059242;28;20237;-92
2023/12/19 07:53:00;;;;;;;55.97;10.70;;;;;;;;;;5054274;28;20207;-92
2023/12/19 07:55:27;;;;;;;61.27;9.43;;;;;;;;;;5055535;28;20211;-92
2023/12/19 07:57:54;;;;;;;75.97;10.80;;;;;;;;;;5057485;28;20265;-92
2023/12/19 08:00:21;;;;;;;50.57;9.60;;;;;;;;;;5058971;28;20225;-92
2023/12/19 08:02:52;;;;;;;33.63;10.13;;;;;;;;;;5054339;28;20298;-92
2023/12/19 08:05:20;;;;;;;35.10;9.10;;;;;;;;;;5057516;28;20210;-92
2023/12/19 08:07:47;;;;;;;51.67;9.83;;;;;;;;;;5059913;28;20204;-92
2023/12/19 08:10:14;;;;;;;25.80;8.67;;;;;;;;;;5053862;28;20242;-92
2023/12/19 08:12:42;;;;;;;41.93;9.47;;;;;;;;;;5052979;28;20267;-92
2023/12/19 08:15:10;;;;;;;27.77;9.10;;;;;;;;;;5053936;28;20214;-93
2023/12/19 08:17:38;;;;;;;60.80;10.87;;;;;;;;;;5056110;28;20289;-92
2023/12/19 08:20:10;;;;;;;31.73;9.03;;;;;;;;;;5049895;28;20210;-93
2023/12/19 08:22:37;;;;;;;38.97;9.10;;;;;;;;;;5053362;28;20231;-92
2023/12/19 08:25:05;;;;;;;37.27;8.73;;;;;;;;;;5058699;28;20207;-92
2023/12/19 08:27:35;;;;;;;38.23;10.00;;;;;;;;;;5050940;28;20206;-92
2023/12/19 08:30:03;;;;;;;47.77;9.67;;;;;;;;;;5055961;28;20236;-92
2023/12/19 08:32:30;;;;;;;44.17;8.67;;;;;;;;;;5060545;28;20215;-92
2023/12/19 08:34:58;;;;;;;51.73;8.50;;;;;;;;;;5057636;28;20214;-92
2023/12/19 08:37:27;;;;;;;56.43;9.53;;;;;;;;;;5053979;28;20238;-92
2023/12/19 08:39:57;;;;;;;55.03;9.07;;;;;;;;;;5055744;28;20195;-91
2023/12/19 08:42:24;;;;;;;66.87;9.37;;;;;;;;;;5052670;28;20211;-92
2023/12/19 08:44:52;;;;;;;68.03;9.93;;;;;;;;;;5056905;28;20215;-91
2023/12/19 08:47:20;;;;;;;59.00;9.67;;;;;;;;;;5050500;28;20211;-92
2023/12/19 08:49:47;;;;;;;54.80;9.73;;;;;;;;;;5047670;28;20227;-92
2023/12/19 08:52:15;;;;;;;52.83;8.63;;;;;;;;;;5048587;28;20291;-91
2023/12/19 08:54:43;;;;;;;60.33;9.10;;;;;;;;;;5045878;28;20199;-92
2023/12/19 08:57:11;;;;;;;74.50;9.33;;;;;;;;;;5048762;28;20209;-91
2023/12/19 08:59:38;;;;;;;82.23;10.07;;;;;;;;;;5050835;28;20235;-92
2023/12/19 09:05:04;;;;;;;102.07;12.53;;;;;;;;;;5031150;28;20231;-91
2023/12/19 09:07:31;;;;;;;85.43;12.97;;;;;;;;;;5042556;28;20213;-90
2023/12/19 09:10:00;;;;;;;57.30;9.87;;;;;;;;;;5046370;28;20317;-91
2023/12/19 09:12:28;;;;;;;115.60;15.43;;;;;;;;;;5045927;28;20230;-91
2023/12/19 09:14:55;;;;;;;89.33;10.80;;;;;;;;;;5047122;28;20214;-91
2023/12/19 09:17:27;;;;;;;148.30;12.93;;;;;;;;;;5046436;28;20308;-92
2023/12/19 09:19:57;;;;;;;119.67;11.80;;;;;;;;;;5049180;28;20225;-93
2023/12/19 09:22:27;;;;;;;31.37;9.27;;;;;;;;;;5045765;28;20219;-92
2023/12/19 09:24:56;;;;;;;54.70;9.67;;;;;;;;;;5033155;28;20221;-91
2023/12/19 09:27:29;;;;;;;51.73;10.33;;;;;;;;;;5029601;28;20250;-92
2023/12/19 09:29:58;;;;;;;51.57;10.03;;;;;;;;;;5032010;28;20239;-91
2023/12/19 09:32:26;;;;;;;100.97;11.70;;;;;;;;;;5030535;28;20233;-91
2023/12/19 09:34:56;;;;;;;38.10;10.40;;;;;;;;;;5030405;28;20223;-93
2023/12/19 09:37:26;;;;;;;127.77;13.00;;;;;;;;;;5029382;28;20221;-92
2023/12/19 09:39:59;;;;;;;68.93;9.83;;;;;;;;;;5031097;28;20231;-91
2023/12/19 09:42:31;;;;;;;43.50;10.57;;;;;;;;;;5032443;28;20233;-91
2023/12/19 09:45:15;;;;;;;60.77;10.50;;;;;;;;;;5034109;28;20246;-92
2023/12/19 09:48:11;;;;;;;31.07;9.40;;;;;;;;;;5033358;28;20305;-93
2023/12/19 09:50:58;;;;;;;59.47;10.50;;;;;;;;;;5031592;28;20329;-91
2023/12/19 09:53:31;;;;;;;44.57;11.30;;;;;;;;;;5027339;28;20214;-92
2023/12/19 09:56:40;;;;;;;47.27;11.70;;;;;;;;;;5029253;28;20206;-88
2023/12/19 09:59:10;;;;;;;34.67;9.77;;;;;;;;;;4998322;28;20209;-87
2023/12/19 10:04:45;;;;;;;40.20;10.00;;;;;;;;;;5028406;28;20182;-88
2023/12/19 10:07:19;;;;;;;42.07;11.17;;;;;;;;;;5027420;28;20229;-88
2023/12/19 10:09:56;;;;;;;39.70;11.30;;;;;;;;;;5027326;28;20226;-87
2023/12/19 10:12:27;;;;;;;66.23;11.23;;;;;;;;;;5028653;28;20209;-87
2023/12/19 10:15:15;;;;;;;46.20;11.27;;;;;;;;;;5029687;28;20211;-87
2023/12/19 10:18:05;;;;;;;50.60;11.27;;;;;;;;;;5030113;28;20282;-88
2023/12/19 10:20:33;;;;;;;54.27;12.17;;;;;;;;;;5029013;28;20207;-87
2023/12/19 10:23:04;;;;;;;59.83;12.63;;;;;;;;;;5028251;28;20204;-87
2023/12/19 10:25:35;;;;;;;56.77;12.93;;;;;;;;;;5030637;28;20220;-87
2023/12/19 10:28:07;;;;;;;133.37;14.77;;;;;;;;;;5031575;28;20210;-87
2023/12/19 10:30:39;;;;;;;105.17;14.40;;;;;;;;;;5033390;28;20231;-87
2023/12/19 10:33:07;;;;;;;130.90;15.23;;;;;;;;;;5029232;28;20207;-88
2023/12/19 10:35:44;;;;;;;52.17;13.20;;;;;;;;;;5032136;28;20212;-87
2023/12/19 10:38:11;;;;;;;116.63;15.00;;;;;;;;;;5029971;28;20216;-88
2023/12/19 10:40:41;;;;;;;60.73;13.47;;;;;;;;;;5034369;28;20311;-87
2023/12/19 10:43:08;;;;;;;138.77;19.53;;;;;;;;;;5028629;28;20200;-88
2023/12/19 10:45:40;;;;;;;131.43;14.80;;;;;;;;;;5028532;28;20253;-88
2023/12/19 10:48:13;;;;;;;74.97;13.63;;;;;;;;;;5035131;28;20287;-88
2023/12/19 10:50:42;;;;;;;60.77;13.13;;;;;;;;;;5034635;28;20326;-88
2023/12/19 10:53:22;;;;;;;71.40;17.53;;;;;;;;;;5033929;28;20396;-87
2023/12/19 10:55:53;;;;;;;67.30;12.83;;;;;;;;;;5033732;28;20219;-87
2023/12/19 10:58:21;;;;;;;41.00;10.57;;;;;;;;;;5032788;28;20214;-88
2023/12/19 11:00:54;;;;;;;39.47;10.97;;;;;;;;;;5033614;28;20211;-89
2023/12/19 11:03:25;;;;;;;45.30;12.90;;;;;;;;;;5033420;28;20211;-87
2023/12/19 11:05:54;;;;;;;46.10;12.30;;;;;;;;;;5035578;28;20234;-91
2023/12/19 11:08:23;;;;;;;47.37;12.40;;;;;;;;;;5030854;28;20208;-90
2023/12/19 11:10:53;;;;;;;36.97;11.43;;;;;;;;;;5035968;28;20321;-92
2023/12/19 11:13:21;;;;;;;48.77;12.03;;;;;;;;;;5032688;28;20215;-91
2023/12/19 11:15:55;;;;;;;50.57;12.27;;;;;;;;;;5035421;28;20252;-91
2023/12/19 11:18:28;;;;;;;42.77;12.47;;;;;;;;;;5034001;28;20215;-91
2023/12/19 11:21:01;;;;;;;43.77;13.70;;;;;;;;;;5034497;28;20237;-91
2023/12/19 11:23:34;;;;;;;56.10;12.87;;;;;;;;;;5030026;28;20334;-90
2023/12/19 11:26:06;;;;;;;62.57;13.90;;;;;;;;;;5034982;28;20354;-91
2023/12/19 11:28:37;;;;;;;78.67;13.37;;;;;;;;;;5033509;28;20284;-91
2023/12/19 11:31:26;;;;;;;67.33;13.33;;;;;;;;;;5040115;28;20223;-91
2023/12/19 11:33:53;;;;;;;79.87;13.77;;;;;;;;;;5031812;28;20227;-91
2023/12/19 11:36:25;;;;;;;97.60;14.97;;;;;;;;;;5036179;28;20208;-91
2023/12/19 11:38:54;;;;;;;105.27;14.63;;;;;;;;;;5034386;28;20242;-91
2023/12/19 11:41:37;;;;;;;49.77;14.03;;;;;;;;;;5037921;28;20218;-91
2023/12/19 11:44:04;;;;;;;106.87;15.03;;;;;;;;;;5036131;28;20222;-90
2023/12/19 11:46:33;;;;;;;145.43;16.00;;;;;;;;;;5035149;28;20204;-91
2023/12/19 11:49:00;;;;;;;127.17;15.97;;;;;;;;;;5032940;28;20215;-92
2023/12/19 11:51:46;;;;;;;188.40;17.77;;;;;;;;;;5037031;28;20256;-92
2023/12/19 11:54:14;;;;;;;146.33;18.03;;;;;;;;;;5032186;28;20211;-91
2023/12/19 11:56:41;;;;;;;131.50;16.03;;;;;;;;;;5033862;28;20207;-92
2023/12/19 11:59:10;;;;;;;121.73;18.13;;;;;;;;;;5034841;28;20211;-92
2023/12/19 12:01:43;;;;;;;206.10;19.50;;;;;;;;;;5034079;28;20270;-91
2023/12/19 12:04:13;;;;;;;183.60;20.93;;;;;;;;;;5033853;28;20216;-90
2023/12/19 12:06:41;;;;;;;166.63;19.00;;;;;;;;;;5035478;28;20206;-92
2023/12/19 12:09:11;;;;;;;33.80;13.30;;;;;;;;;;5034573;28;20214;-92
2023/12/19 12:11:48;;;;;;;64.50;15.13;;;;;;;;;;5035825;28;20250;-93
2023/12/19 12:14:18;;;;;;;82.63;17.20;;;;;;;;;;5035562;28;20294;-91
2023/12/19 12:16:47;;;;;;;112.03;17.83;;;;;;;;;;5039008;28;20431;-87
2023/12/19 12:19:15;;;;;;;128.10;18.20;;;;;;;;;;5036188;28;20216;-88
2023/12/19 12:21:46;;;;;;;119.67;17.43;;;;;;;;;;5037946;28;20202;-88
2023/12/19 12:24:20;;;;;;;102.93;16.47;;;;;;;;;;5033756;28;20208;-88
2023/12/19 12:26:49;;;;;;;73.77;15.47;;;;;;;;;;5037188;28;20264;-88
2023/12/19 12:29:17;;;;;;;80.67;17.03;;;;;;;;;;5036000;28;20219;-88
2023/12/19 12:31:50;;;;;;;104.77;16.90;;;;;;;;;;5034634;28;20238;-88
2023/12/19 12:34:17;;;;;;;64.53;16.00;;;;;;;;;;5033964;28;20217;-88
2023/12/19 12:36:49;;;;;;;83.17;13.97;;;;;;;;;;5033811;28;20342;-87
2023/12/19 12:39:22;;;;;;;50.67;14.40;;;;;;;;;;5040927;28;20215;-87
2023/12/19 12:41:56;;;;;;;96.30;15.97;;;;;;;;;;5050034;28;20287;-87
2023/12/19 12:44:26;;;;;;;72.80;14.50;;;;;;;;;;5057057;28;20231;-88
2023/12/19 12:46:54;;;;;;;96.13;15.70;;;;;;;;;;5058107;28;20218;-88
2023/12/19 12:49:21;;;;;;;87.57;15.10;;;;;;;;;;5054410;28;20237;-88
2023/12/19 12:51:49;;;;;;;71.27;15.90;;;;;;;;;;5053412;28;20303;-88
2023/12/19 12:54:25;;;;;;;68.57;15.00;;;;;;;;;;5057848;28;20298;-87
2023/12/19 12:56:53;;;;;;;93.30;15.60;;;;;;;;;;5052253;28;20272;-87
2023/12/19 12:59:25;;;;;;;97.97;16.17;;;;;;;;;;5051576;28;20218;-87
2023/12/19 13:01:52;;;;;;;92.17;17.93;;;;;;;;;;5047925;28;20202;-88
2023/12/19 13:04:22;;;;;;;122.33;17.60;;;;;;;;;;5050542;28;20208;-88
2023/12/19 13:06:52;;;;;;;96.73;17.03;;;;;;;;;;5051603;28;20200;-88
2023/12/19 13:09:20;;;;;;;88.27;16.73;;;;;;;;;;5053936;28;20255;-88
2023/12/19 13:11:51;;;;;;;68.00;14.90;;;;;;;;;;5052013;28;20238;-88
2023/12/19 13:14:18;;;;;;;93.57;15.63;;;;;;;;;;5049375;28;20235;-88
2023/12/19 13:16:45;;;;;;;118.40;16.37;;;;;;;;;;5047690;28;20235;-87
2023/12/19 13:19:14;;;;;;;91.53;16.33;;;;;;;;;;5047736;28;20294;-88
2023/12/19 13:21:43;;;;;;;106.83;17.27;;;;;;;;;;5051448;28;20290;-88
2023/12/19 13:24:10;;;;;;;82.70;17.10;;;;;;;;;;5047695;28;20287;-88
2023/12/19 13:26:37;;;;;;;98.23;16.13;;;;;;;;;;5050051;28;20199;-92
2023/12/19 13:29:07;;;;;;;107.70;16.23;;;;;;;;;;5058719;28;20207;-92
2023/12/19 13:31:34;;;;;;;127.93;17.40;;;;;;;;;;5049626;28;20231;-92
2023/12/19 13:34:04;;;;;;;97.27;16.17;;;;;;;;;;5053137;28;20211;-92
2023/12/19 13:36:34;;;;;;;138.33;17.67;;;;;;;;;;5036219;28;20214;-92
2023/12/19 13:39:03;;;;;;;100.80;18.27;;;;;;;;;;5033974;28;20247;-91
2023/12/19 13:41:30;;;;;;;126.23;18.40;;;;;;;;;;5034672;28;20207;-92
2023/12/19 13:43:58;;;;;;;97.73;18.67;;;;;;;;;;5032305;28;20225;-91
2023/12/19 13:46:27;;;;;;;99.07;19.03;;;;;;;;;;5032255;28;20275;-91
2023/12/19 13:48:56;;;;;;;138.83;19.63;;;;;;;;;;5032136;28;20292;-92
2023/12/19 13:51:23;;;;;;;117.20;18.90;;;;;;;;;;5031738;28;20203;-91
2023/12/19 13:53:52;;;;;;;104.70;17.60;;;;;;;;;;5034476;28;20329;-90
2023/12/19 13:56:21;;;;;;;116.83;16.77;;;;;;;;;;5035657;28;20222;-92
2023/12/19 13:58:51;;;;;;;114.33;17.30;;;;;;;;;;5033716;28;20211;-90
2023/12/19 14:01:18;;;;;;;63.90;16.00;;;;;;;;;;5033491;28;20212;-91
2023/12/19 14:03:45;;;;;;;139.70;16.67;;;;;;;;;;5036351;28;20290;-91
2023/12/19 14:06:13;;;;;;;121.43;16.30;;;;;;;;;;5035276;28;20207;-91
2023/12/19 14:08:47;;;;;;;111.53;16.17;;;;;;;;;;5035404;28;20294;-93
2023/12/19 14:11:20;;;;;;;121.80;16.87;;;;;;;;;;5036139;28;20315;-92
2023/12/19 14:13:48;;;;;;;103.80;14.93;;;;;;;;;;5036542;28;20295;-92
2023/12/19 14:16:16;;;;;;;104.47;15.10;;;;;;;;;;5036313;28;20329;-93
2023/12/19 14:18:43;;;;;;;97.17;14.77;;;;;;;;;;5036970;28;20841;-92
2023/12/19 14:21:11;;;;;;;122.30;16.70;;;;;;;;;;5036772;28;20217;-91
2023/12/19 14:23:41;;;;;;;155.30;17.70;;;;;;;;;;5040526;28;20207;-92
2023/12/19 14:26:08;;;;;;;113.60;15.77;;;;;;;;;;5039466;28;20303;-92
2023/12/19 14:28:36;;;;;;;168.33;18.50;;;;;;;;;;5046471;28;20214;-93
2023/12/19 14:31:05;;;;;;;69.73;14.43;;;;;;;;;;5041783;28;20222;-91
2023/12/19 14:33:32;;;;;;;120.57;17.47;;;;;;;;;;5038262;28;20227;-92
2023/12/19 14:35:59;;;;;;;119.17;16.43;;;;;;;;;;5039160;28;20323;-87
2023/12/19 14:38:29;;;;;;;116.33;16.27;;;;;;;;;;5039110;28;20239;-88
2023/12/19 14:40:56;;;;;;;63.17;15.93;;;;;;;;;;5041647;28;20239;-88
2023/12/19 14:43:26;;;;;;;111.57;16.63;;;;;;;;;;5038387;28;20200;-88